Time;durP1;ratioP1;P1;durP2;ratioP2;P2;SDS_P1;SDS_P2;PMS_P1;PMS_P2;Temp;Humidity;BMP_temperature;BMP_pressure;BME280_temperature;BME280_humidity;BME280_pressure;Samples;Min_cycle;Max_cycle;Signal;HPM_P1;HPM_P2
2022/07/19 04:48:34;;;;;;;3.17;2.27;;;16.20;99.90;;;;;;5089284;27;1926757;-75
2022/07/19 04:51:00;;;;;;;3.13;2.00;;;16.00;99.90;;;;;;5120751;28;20186;-76
2022/07/19 04:53:26;;;;;;;8.57;3.60;;;16.00;99.90;;;;;;5110753;28;20642;-76
2022/07/19 04:55:52;;;;;;;3.47;2.10;;;16.00;99.90;;;;;;5110872;28;20165;-76
2022/07/19 04:58:17;;;;;;;3.03;1.90;;;16.10;99.90;;;;;;5091598;28;20662;-76
2022/07/19 05:00:43;;;;;;;4.03;2.30;;;16.10;99.90;;;;;;5110613;28;20196;-75
2022/07/19 05:03:09;;;;;;;3.30;2.50;;;16.20;99.90;;;;;;5092345;28;20555;-76
2022/07/19 05:05:34;;;;;;;2.40;2.00;;;16.20;99.90;;;;;;5110692;28;20169;-78
2022/07/19 05:08:00;;;;;;;2.60;2.07;;;16.10;99.90;;;;;;5110457;28;20694;-76
2022/07/19 05:10:25;;;;;;;4.33;2.13;;;16.20;99.90;;;;;;5109612;28;20564;-76
2022/07/19 05:12:51;;;;;;;5.53;2.33;;;16.20;99.90;;;;;;5110713;28;20180;-76
2022/07/19 05:15:17;;;;;;;5.77;2.40;;;16.20;99.90;;;;;;5094913;28;20192;-76
2022/07/19 05:17:42;;;;;;;4.93;2.40;;;16.30;99.90;;;;;;5110481;28;20173;-75
2022/07/19 05:20:08;;;;;;;2.50;2.10;;;16.30;99.90;;;;;;5109430;28;20198;-76
2022/07/19 05:22:35;;;;;;;2.93;1.90;;;16.30;99.90;;;;;;5115002;28;20256;-76
2022/07/19 05:25:00;;;;;;;2.20;2.00;;;16.40;99.90;;;;;;5110238;28;20688;-76
2022/07/19 05:27:26;;;;;;;4.80;2.40;;;16.40;99.90;;;;;;5113746;28;20193;-76
2022/07/19 05:29:51;;;;;;;3.80;2.40;;;16.50;99.90;;;;;;5090450;28;20223;-75
2022/07/19 05:32:17;;;;;;;2.93;2.40;;;16.50;99.90;;;;;;5091871;28;20173;-76
2022/07/19 05:34:44;;;;;;;2.37;1.83;;;16.60;99.90;;;;;;5110252;28;20166;-77
2022/07/19 05:37:09;;;;;;;4.43;2.63;;;16.60;99.90;;;;;;5092407;28;20209;-75
2022/07/19 05:39:35;;;;;;;3.27;2.13;;;16.70;99.90;;;;;;5091114;28;20681;-76
2022/07/19 05:42:00;;;;;;;5.37;2.10;;;16.70;99.90;;;;;;5109808;28;20204;-76
2022/07/19 05:44:26;;;;;;;3.53;2.30;;;16.80;99.90;;;;;;5091640;28;20208;-76
2022/07/19 05:46:51;;;;;;;13.73;3.13;;;16.80;99.90;;;;;;5091604;28;20326;-76
2022/07/19 05:49:17;;;;;;;3.17;2.37;;;16.90;99.90;;;;;;5108625;28;20178;-75
2022/07/19 05:51:43;;;;;;;4.40;2.70;;;16.90;99.90;;;;;;5091185;28;20186;-75
2022/07/19 05:54:09;;;;;;;5.80;2.57;;;17.00;99.90;;;;;;5109596;28;20161;-76
2022/07/19 05:56:35;;;;;;;4.73;2.30;;;17.00;99.90;;;;;;5109374;28;20166;-76
2022/07/19 05:59:01;;;;;;;5.63;2.90;;;17.10;99.90;;;;;;5100440;28;20174;-74
2022/07/19 06:01:27;;;;;;;14.63;3.10;;;17.10;99.90;;;;;;5095685;28;20563;-75
2022/07/19 06:03:55;;;;;;;6.80;2.50;;;17.20;99.90;;;;;;5077350;28;20174;-75
2022/07/19 06:06:22;;;;;;;4.57;2.80;;;17.20;99.90;;;;;;5077325;28;20170;-75
2022/07/19 06:08:48;;;;;;;2.57;2.10;;;17.20;99.90;;;;;;5094863;28;20647;-75
2022/07/19 06:11:16;;;;;;;2.93;2.40;;;17.40;99.90;;;;;;5095896;28;20243;-74
2022/07/19 06:13:42;;;;;;;3.90;3.17;;;17.50;99.90;;;;;;5077365;28;20174;-74
2022/07/19 06:16:08;;;;;;;4.67;2.30;;;17.60;99.90;;;;;;5095773;28;20261;-74
2022/07/19 06:18:34;;;;;;;3.67;2.10;;;17.70;99.90;;;;;;5094791;28;20255;-75
2022/07/19 06:21:02;;;;;;;3.23;2.17;;;17.80;99.90;;;;;;5095539;28;20194;-74
2022/07/19 06:23:27;;;;;;;4.13;2.10;;;17.90;99.90;;;;;;5095358;28;20189;-75
2022/07/19 06:25:53;;;;;;;3.63;2.03;;;18.00;99.90;;;;;;5095549;28;20639;-74
2022/07/19 06:28:18;;;;;;;3.43;2.20;;;18.20;99.90;;;;;;5094302;28;20249;-74
2022/07/19 06:30:44;;;;;;;3.77;2.30;;;18.30;99.90;;;;;;5095238;28;20243;-74
2022/07/19 06:33:09;;;;;;;2.23;2.03;;;18.40;99.90;;;;;;5095203;28;20171;-75
2022/07/19 06:35:35;;;;;;;3.17;1.90;;;18.50;99.90;;;;;;5095338;28;20167;-74
2022/07/19 06:38:00;;;;;;;2.13;1.83;;;18.80;99.90;;;;;;5094981;28;20170;-75
2022/07/19 06:40:26;;;;;;;1.77;1.67;;;18.70;99.90;;;;;;5094006;28;20201;-75
2022/07/19 06:42:52;;;;;;;3.93;1.93;;;19.00;1.00;;;;;;5076679;28;20178;-74
2022/07/19 06:45:18;;;;;;;4.93;1.97;;;19.20;1.00;;;;;;5094694;28;20170;-75
2022/07/19 06:47:43;;;;;;;6.83;2.50;;;19.30;1.00;;;;;;5076308;28;20210;-75
2022/07/19 06:50:09;;;;;;;4.77;1.50;;;19.40;1.00;;;;;;5093660;28;20198;-75
2022/07/19 06:52:34;;;;;;;2.70;1.57;;;19.70;1.00;;;;;;5075919;28;20182;-75
2022/07/19 06:55:00;;;;;;;5.47;1.87;;;19.90;1.00;;;;;;5094481;28;20166;-77
2022/07/19 06:57:25;;;;;;;2.57;1.70;;;20.00;1.00;;;;;;5076911;28;20178;-75
2022/07/19 06:59:51;;;;;;;4.40;1.87;;;20.20;1.00;;;;;;5093632;28;20188;-76
2022/07/19 07:02:16;;;;;;;4.03;1.73;;;20.40;1.00;;;;;;5076375;28;20174;-75
2022/07/19 07:04:42;;;;;;;2.87;1.80;;;20.60;1.00;;;;;;5076192;28;20167;-75
2022/07/19 07:07:08;;;;;;;8.23;1.60;;;20.70;99.90;;;;;;5094559;28;20194;-75
2022/07/19 07:09:33;;;;;;;3.70;1.80;;;20.80;99.90;;;;;;5093209;28;20186;-76
2022/07/19 07:11:59;;;;;;;4.10;2.03;;;21.00;7.70;;;;;;5075417;28;20190;-76
2022/07/19 07:14:24;;;;;;;3.47;1.70;;;21.10;1.00;;;;;;5094579;28;20578;-76
2022/07/19 07:16:50;;;;;;;3.43;1.60;;;21.30;1.00;;;;;;5076110;28;20530;-75
2022/07/19 07:19:15;;;;;;;5.57;1.80;;;21.40;1.00;;;;;;5091840;28;20233;-76
2022/07/19 07:21:41;;;;;;;3.27;1.50;;;21.70;99.90;;;;;;5094037;28;20243;-75
2022/07/19 07:24:06;;;;;;;4.70;1.50;;;21.80;99.90;;;;;;5094482;28;20208;-76
2022/07/19 07:26:33;;;;;;;4.73;1.70;;;21.90;99.90;;;;;;5094096;28;20220;-76
2022/07/19 07:28:59;;;;;;;3.23;1.73;;;22.10;37.60;;;;;;5074676;28;20182;-76
2022/07/19 07:31:25;;;;;;;2.43;1.50;;;22.30;99.90;;;;;;5076078;28;20194;-76
2022/07/19 07:33:51;;;;;;;3.23;1.63;;;22.40;1.00;;;;;;5076500;28;20532;-77
2022/07/19 07:36:16;;;;;;;4.80;1.97;;;22.50;99.90;;;;;;5094383;28;20204;-77
2022/07/19 07:38:42;;;;;;;4.07;1.40;;;22.70;99.90;;;;;;5075625;28;20574;-76
2022/07/19 07:41:08;;;;;;;5.20;1.60;;;22.80;1.00;;;;;;5094577;28;20369;-77
2022/07/19 07:43:35;;;;;;;2.80;1.50;;;23.10;1.00;;;;;;5094261;28;20170;-77
2022/07/19 07:46:00;;;;;;;2.90;1.30;;;23.10;1.00;;;;;;5076473;28;20174;-77
2022/07/19 07:48:26;;;;;;;2.57;1.53;;;23.30;99.90;;;;;;5075323;28;20259;-78
2022/07/19 07:50:51;;;;;;;3.57;1.80;;;23.50;99.90;;;;;;5095724;28;20190;-77
2022/07/19 07:53:17;;;;;;;4.07;1.67;;;23.60;1.00;;;;;;5095630;28;20175;-78
2022/07/19 07:55:43;;;;;;;4.90;1.43;;;23.60;99.90;;;;;;5095643;28;20170;-77
2022/07/19 07:58:10;;;;;;;6.17;1.77;;;23.70;98.20;;;;;;5094612;28;20260;-78
2022/07/19 08:00:37;;;;;;;2.27;1.50;;;23.90;99.90;;;;;;5095150;28;20194;-78
2022/07/19 08:03:03;;;;;;;2.20;1.33;;;24.10;99.90;;;;;;5094053;28;20257;-78
2022/07/19 08:05:28;;;;;;;2.70;1.57;;;24.20;99.90;;;;;;5076282;28;20712;-78
2022/07/19 08:07:54;;;;;;;1.50;1.40;;;24.30;99.90;;;;;;5076530;28;20677;-77
2022/07/19 08:10:25;;;;;;;3.20;1.47;;;24.50;99.90;;;;;;5075539;28;20202;-78
2022/07/19 08:12:51;;;;;;;4.10;1.50;;;24.60;99.90;;;;;;5093608;28;20151;-77
2022/07/19 08:15:17;;;;;;;4.60;1.80;;;24.70;99.90;;;;;;5075057;28;20548;-77
2022/07/19 08:17:42;;;;;;;2.50;1.53;;;24.80;99.90;;;;;;5093462;28;20204;-77
2022/07/19 08:20:08;;;;;;;2.53;1.30;;;24.90;99.90;;;;;;5094257;28;20548;-77
2022/07/19 08:22:34;;;;;;;3.30;1.77;;;24.90;3.40;;;;;;5076432;28;20734;-78
2022/07/19 08:25:00;;;;;;;6.17;1.67;;;25.00;18.90;;;;;;5093662;28;20197;-78
2022/07/19 08:27:25;;;;;;;2.27;1.43;;;25.20;40.30;;;;;;5093713;28;20194;-77
2022/07/19 08:29:51;;;;;;;2.65;1.60;;;25.20;90.00;;;;;;5092581;28;20216;-77
2022/07/19 08:32:16;;;;;;;4.17;1.50;;;25.40;94.50;;;;;;5093723;28;20173;-77
2022/07/19 08:34:42;;;;;;;5.55;1.83;;;25.50;1.00;;;;;;5075102;28;20178;-77
2022/07/19 08:37:07;;;;;;;4.10;1.13;;;25.60;1.00;;;;;;5093084;28;20203;-77
2022/07/19 08:39:33;;;;;;;3.42;1.65;;;25.70;1.00;;;;;;5092422;28;20207;-77
2022/07/19 08:41:58;;;;;;;2.97;1.52;;;25.90;1.00;;;;;;5074976;28;20285;-76
2022/07/19 08:44:25;;;;;;;1.42;1.33;;;26.00;1.00;;;;;;5093795;28;20255;-77
2022/07/19 08:46:51;;;;;;;2.20;1.30;;;26.10;1.00;;;;;;5092690;28;20194;-77
2022/07/19 08:49:18;;;;;;;2.22;1.33;;;26.30;1.00;;;;;;5092089;28;20205;-77
2022/07/19 08:51:47;;;;;;;3.60;1.77;;;26.40;1.00;;;;;;5093437;28;20186;-77
2022/07/19 08:54:12;;;;;;;2.53;1.73;;;26.60;99.90;;;;;;5093710;28;20166;-77
2022/07/19 08:59:23;;;;;;;2.33;1.48;;;26.80;99.90;;;;;;5093383;28;20189;-77
2022/07/19 09:01:49;;;;;;;2.90;1.70;;;27.00;99.90;;;;;;5093153;28;20224;-78
2022/07/19 09:04:19;;;;;;;1.88;1.45;;;27.10;99.90;;;;;;5094803;28;20174;-78
2022/07/19 09:06:48;;;;;;;3.33;1.83;;;27.20;99.90;;;;;;5077278;28;20243;-78
2022/07/19 09:09:23;;;;;;;4.45;1.95;;;27.30;99.90;;;;;;5077443;28;20697;-78
2022/07/19 09:11:50;;;;;;;3.42;1.70;;;27.50;95.10;;;;;;5077492;28;20236;-78
2022/07/19 09:14:52;;;;;;;4.68;1.70;;;27.60;59.10;;;;;;5078710;28;20166;-78
2022/07/19 09:17:19;;;;;;;2.22;1.55;;;27.80;19.50;;;;;;5096831;28;20197;-78
2022/07/19 09:19:46;;;;;;;2.38;1.70;;;27.80;1.00;;;;;;5096064;28;20166;-78
2022/07/19 09:22:17;;;;;;;4.50;2.10;;;28.00;1.00;;;;;;5097212;28;20187;-77
2022/07/19 09:24:50;;;;;;;2.85;1.45;;;28.10;1.00;;;;;;5096131;28;20175;-78
2022/07/19 09:27:22;;;;;;;5.25;1.95;;;28.20;1.00;;;;;;5096797;28;20218;-77
2022/07/19 09:29:53;;;;;;;3.40;1.73;;;28.40;1.00;;;;;;5077095;28;20257;-77
2022/07/19 09:32:21;;;;;;;4.90;2.08;;;28.50;1.00;;;;;;5095996;28;20210;-77
2022/07/19 09:34:50;;;;;;;2.53;1.55;;;28.60;1.00;;;;;;5099471;28;20244;-78
2022/07/19 09:37:19;;;;;;;4.28;1.70;;;28.60;1.00;;;;;;5081529;28;20176;-78
2022/07/19 09:39:50;;;;;;;2.78;1.48;;;28.80;1.00;;;;;;5099893;28;20224;-78
2022/07/19 09:42:43;;;;;;;4.10;1.80;;;28.90;1.00;;;;;;5099058;28;20529;-79
2022/07/19 09:45:11;;;;;;;2.53;1.65;;;29.00;1.00;;;;;;5069551;28;20563;-78
2022/07/19 09:47:42;;;;;;;4.10;1.67;;;29.20;1.00;;;;;;5100909;28;20210;-78
2022/07/19 09:50:10;;;;;;;3.88;1.70;;;29.20;1.00;;;;;;5084478;28;20194;-78
2022/07/19 09:52:36;;;;;;;6.30;1.85;;;29.40;1.00;;;;;;5099229;28;20217;-78
2022/07/19 09:55:04;;;;;;;7.45;1.65;;;29.50;1.00;;;;;;5080558;28;20196;-77
2022/07/19 09:57:35;;;;;;;2.95;1.75;;;29.60;1.00;;;;;;5098068;28;20694;-79
2022/07/19 10:00:04;;;;;;;3.08;1.92;;;29.70;1.00;;;;;;5080786;28;20182;-79
2022/07/19 10:02:33;;;;;;;3.13;1.80;;;29.80;1.00;;;;;;5100843;28;20265;-79
2022/07/19 10:04:59;;;;;;;3.28;2.05;;;29.90;1.00;;;;;;5099549;28;20218;-80
2022/07/19 10:07:26;;;;;;;3.55;1.67;;;30.00;1.00;;;;;;5080584;28;20637;-79
2022/07/19 10:09:52;;;;;;;3.63;1.48;;;30.00;1.00;;;;;;5081765;28;20206;-78
2022/07/19 10:12:18;;;;;;;5.55;1.70;;;30.10;1.00;;;;;;5100218;28;20639;-79
2022/07/19 10:14:43;;;;;;;2.30;1.75;;;30.20;1.00;;;;;;5081789;28;20178;-78
2022/07/19 10:17:17;;;;;;;3.67;2.00;;;30.30;1.00;;;;;;5081429;28;20194;-78
2022/07/19 10:19:49;;;;;;;3.95;2.03;;;30.40;1.00;;;;;;5082758;28;20178;-82
2022/07/19 10:22:18;;;;;;;3.50;1.63;;;30.60;1.00;;;;;;5080498;28;20726;-79
2022/07/19 10:24:47;;;;;;;2.72;2.08;;;30.70;1.00;;;;;;5098091;28;20178;-80
2022/07/19 10:27:34;;;;;;;1.67;1.35;;;30.70;1.00;;;;;;5097057;28;20285;-80
2022/07/19 10:30:11;;;;;;;2.90;1.70;;;30.80;1.00;;;;;;5095564;28;20189;-79
2022/07/19 10:32:39;;;;;;;2.80;1.70;;;30.90;1.00;;;;;;5080489;28;20174;-80
2022/07/19 10:35:22;;;;;;;2.92;1.63;;;31.10;1.00;;;;;;5079981;28;20167;-79
2022/07/19 10:38:06;;;;;;;3.28;1.98;;;31.20;1.00;;;;;;5078763;28;20189;-79
2022/07/19 10:40:41;;;;;;;2.38;1.50;;;31.30;1.00;;;;;;5098536;28;20265;-79
2022/07/19 10:43:14;;;;;;;3.42;1.80;;;31.50;1.00;;;;;;5081103;28;20567;-79
2022/07/19 10:46:00;;;;;;;1.77;1.38;;;31.50;1.00;;;;;;5080479;28;20174;-79
2022/07/19 10:48:49;;;;;;;3.75;1.55;;;31.60;1.00;;;;;;5096691;28;20209;-79
2022/07/19 10:51:29;;;;;;;2.42;1.60;;;31.90;1.00;;;;;;5090681;28;20214;-79
2022/07/19 10:54:07;;;;;;;2.47;1.60;;;31.90;1.00;;;;;;5102969;28;20166;-79
2022/07/19 10:56:36;;;;;;;5.25;1.63;;;31.90;1.00;;;;;;5102946;28;20169;-80
2022/07/19 10:59:12;;;;;;;3.58;1.55;;;31.90;1.00;;;;;;5079809;28;20182;-80
2022/07/19 11:01:55;;;;;;;3.55;1.70;;;32.10;1.00;;;;;;5098859;28;20551;-81
2022/07/19 11:04:22;;;;;;;2.95;1.30;;;31.90;1.00;;;;;;5101012;28;20671;-79
2022/07/19 11:06:48;;;;;;;2.67;1.23;;;32.30;1.00;;;;;;5084040;28;20198;-79
2022/07/19 11:09:13;;;;;;;3.05;1.63;;;32.10;1.00;;;;;;5102119;28;20178;-79
2022/07/19 11:11:39;;;;;;;4.00;1.63;;;32.50;1.00;;;;;;5102988;28;20190;-78
2022/07/19 11:14:04;;;;;;;2.15;1.33;;;32.50;1.00;;;;;;5104184;28;20175;-77
2022/07/19 11:16:30;;;;;;;1.70;1.50;;;32.60;1.00;;;;;;5103565;28;20186;-79
2022/07/19 11:19:07;;;;;;;6.60;1.92;;;32.60;1.00;;;;;;5102978;28;20749;-78
2022/07/19 11:21:36;;;;;;;2.20;1.48;;;32.60;1.00;;;;;;5079425;28;20705;-80
2022/07/19 11:24:02;;;;;;;2.53;1.67;;;32.80;1.00;;;;;;5097547;28;20174;-80
2022/07/19 11:26:37;;;;;;;2.25;1.52;;;32.80;1.00;;;;;;5079096;28;20170;-80
2022/07/19 11:29:03;;;;;;;2.13;1.80;;;32.90;1.00;;;;;;5078978;28;20206;-80
2022/07/19 11:31:29;;;;;;;3.30;1.50;;;33.00;1.00;;;;;;5089012;28;20213;-79
2022/07/19 11:33:57;;;;;;;2.55;1.40;;;33.00;1.00;;;;;;5097503;28;20169;-79
2022/07/19 11:36:24;;;;;;;1.58;1.38;;;33.00;1.00;;;;;;5095573;28;20651;-78
2022/07/19 11:38:53;;;;;;;1.35;1.25;;;33.10;1.00;;;;;;5076804;28;20224;-79
2022/07/19 11:41:20;;;;;;;2.10;1.30;;;33.20;1.00;;;;;;5095150;28;20193;-79
2022/07/19 11:43:55;;;;;;;4.47;1.50;;;33.20;1.00;;;;;;5095384;28;20173;-78
2022/07/19 11:46:29;;;;;;;4.45;1.63;;;33.20;1.00;;;;;;5094880;28;20166;-78
2022/07/19 11:48:57;;;;;;;2.50;1.67;;;33.30;1.00;;;;;;5093652;28;20224;-78
2022/07/19 11:51:23;;;;;;;1.67;1.27;;;33.50;1.00;;;;;;5076527;28;20204;-78
2022/07/19 11:53:54;;;;;;;4.85;1.30;;;33.50;1.00;;;;;;5094744;28;20658;-78
2022/07/19 11:56:24;;;;;;;2.80;1.33;;;33.70;1.00;;;;;;5076227;28;20212;-78
2022/07/19 11:58:51;;;;;;;1.67;1.20;;;33.60;1.00;;;;;;5076101;28;20584;-78
2022/07/19 12:01:24;;;;;;;1.42;1.27;;;33.70;1.00;;;;;;5076432;28;20205;-78
2022/07/19 12:04:00;;;;;;;1.77;1.25;;;33.70;1.00;;;;;;5094381;28;20228;-78
2022/07/19 12:06:39;;;;;;;1.65;1.10;;;33.80;1.00;;;;;;5076728;28;20223;-79
2022/07/19 12:16:16;;;;;;;3.17;1.33;;;33.90;1.00;;;;;;5076963;28;20514;-78
2022/07/19 12:18:58;;;;;;;2.75;1.30;;;34.00;1.00;;;;;;5083877;28;20178;-78
2022/07/19 12:21:34;;;;;;;2.50;1.27;;;34.10;1.00;;;;;;5096421;28;20604;-78
2022/07/19 12:27:27;;;;;;;2.47;1.55;;;34.30;1.00;;;;;;5102105;28;20201;-77
2022/07/19 12:29:54;;;;;;;3.65;1.30;;;34.30;1.00;;;;;;5082152;28;20650;-79
2022/07/19 12:32:45;;;;;;;3.33;1.50;;;34.40;1.00;;;;;;5102389;28;20282;-78
2022/07/19 12:35:14;;;;;;;3.50;1.73;;;34.50;1.00;;;;;;5086274;28;20212;-79
2022/07/19 12:37:44;;;;;;;6.82;1.98;;;34.40;1.00;;;;;;5102086;28;20524;-78
2022/07/19 12:40:22;;;;;;;2.97;1.50;;;34.40;1.00;;;;;;5098020;28;20210;-79
2022/07/19 12:42:47;;;;;;;3.65;1.77;;;34.50;1.00;;;;;;5082897;28;20182;-79
2022/07/19 12:45:23;;;;;;;3.00;1.70;;;34.50;1.00;;;;;;5100588;28;20578;-79
2022/07/19 12:47:51;;;;;;;4.32;1.30;;;34.60;1.00;;;;;;5079616;28;20206;-79
2022/07/19 12:50:34;;;;;;;3.13;2.00;;;34.80;1.00;;;;;;5076594;28;20194;-79
2022/07/19 12:53:02;;;;;;;4.68;1.70;;;34.80;1.00;;;;;;5077887;28;20638;-79
2022/07/19 12:55:30;;;;;;;2.47;1.55;;;34.80;1.00;;;;;;5095945;28;20220;-79
2022/07/19 12:57:56;;;;;;;2.33;1.90;;;34.90;1.00;;;;;;5095910;28;20174;-79
2022/07/19 13:00:23;;;;;;;2.05;1.40;;;35.00;1.00;;;;;;5095129;28;20228;-79
2022/07/19 13:02:50;;;;;;;3.67;1.80;;;35.00;1.00;;;;;;5098013;28;20178;-79
2022/07/19 13:05:16;;;;;;;6.90;1.92;;;35.10;1.00;;;;;;5085089;28;20174;-79
2022/07/19 13:07:41;;;;;;;5.60;1.65;;;35.10;1.00;;;;;;5105028;28;20211;-78
2022/07/19 13:10:08;;;;;;;2.72;1.77;;;35.10;1.00;;;;;;5105403;28;20651;-79
2022/07/19 13:12:34;;;;;;;5.85;1.50;;;35.20;1.00;;;;;;5087447;28;20264;-79
2022/07/19 13:15:00;;;;;;;2.92;1.63;;;35.30;1.00;;;;;;5105738;28;20177;-79
2022/07/19 13:17:25;;;;;;;4.35;1.65;;;35.30;1.00;;;;;;5086191;28;20178;-79
2022/07/19 13:19:51;;;;;;;2.28;1.80;;;35.20;1.00;;;;;;5083761;28;20193;-78
2022/07/19 13:22:16;;;;;;;2.10;1.17;;;35.30;1.00;;;;;;5084800;28;20173;-80
2022/07/19 13:24:42;;;;;;;3.75;1.60;;;35.40;1.00;;;;;;5086181;28;20529;-79
2022/07/19 13:27:07;;;;;;;2.95;1.40;;;35.50;1.00;;;;;;5106477;28;20190;-79
2022/07/19 13:29:33;;;;;;;4.40;1.60;;;35.70;1.00;;;;;;5085784;28;20186;-79
2022/07/19 13:31:59;;;;;;;2.55;1.40;;;35.70;1.00;;;;;;5102924;28;20215;-79
2022/07/19 13:34:25;;;;;;;6.22;1.70;;;35.70;1.00;;;;;;5084553;28;20265;-79
2022/07/19 13:36:51;;;;;;;1.50;1.30;;;35.80;1.00;;;;;;5087907;28;20771;-79
2022/07/19 13:39:16;;;;;;;4.13;1.67;;;35.80;1.00;;;;;;5106211;28;20170;-79
2022/07/19 13:41:42;;;;;;;2.40;1.38;;;35.80;1.00;;;;;;5103525;28;20265;-78
2022/07/19 13:44:08;;;;;;;3.88;1.65;;;35.90;1.00;;;;;;5084774;28;20283;-79
2022/07/19 13:46:34;;;;;;;2.67;1.30;;;36.00;1.00;;;;;;5101602;28;20170;-79
2022/07/19 13:48:59;;;;;;;4.80;1.55;;;36.10;1.00;;;;;;5101018;28;20201;-78
2022/07/19 13:51:25;;;;;;;2.95;1.70;;;36.30;1.00;;;;;;5099720;28;20187;-79
2022/07/19 13:53:51;;;;;;;2.75;1.45;;;36.30;1.00;;;;;;5081163;28;20166;-79
2022/07/19 13:56:18;;;;;;;2.00;1.40;;;36.50;1.00;;;;;;5100645;28;20163;-78
2022/07/19 13:58:43;;;;;;;2.22;1.40;;;36.50;1.00;;;;;;5101476;28;20655;-78
2022/07/19 14:01:10;;;;;;;2.38;1.75;;;36.50;1.00;;;;;;5099230;28;20204;-79
2022/07/19 14:03:36;;;;;;;2.78;1.50;;;36.60;1.00;;;;;;5100313;28;20253;-79
2022/07/19 14:06:01;;;;;;;3.67;1.48;;;36.70;1.00;;;;;;5080781;28;20202;-78
2022/07/19 14:08:27;;;;;;;1.40;1.30;;;36.80;1.00;;;;;;5080379;28;20220;-78
2022/07/19 14:10:53;;;;;;;2.78;1.80;;;36.90;1.00;;;;;;5080087;28;20209;-79
2022/07/19 14:13:18;;;;;;;5.50;1.92;;;36.90;1.00;;;;;;5080056;28;20186;-79
2022/07/19 14:15:44;;;;;;;3.38;1.30;;;37.00;1.00;;;;;;5080896;28;20185;-79
2022/07/19 14:18:10;;;;;;;4.65;2.10;;;37.10;1.00;;;;;;5081278;28;20797;-79
2022/07/19 14:20:36;;;;;;;3.83;1.50;;;37.20;1.00;;;;;;5080535;28;20186;-79
2022/07/19 14:23:01;;;;;;;1.55;1.30;;;37.30;1.00;;;;;;5082911;28;20635;-79
2022/07/19 14:25:27;;;;;;;1.95;1.20;;;37.30;1.00;;;;;;5100462;28;20219;-79
2022/07/19 14:27:52;;;;;;;2.40;1.55;;;37.30;1.00;;;;;;5099897;28;20557;-79
2022/07/19 14:30:18;;;;;;;2.83;1.60;;;37.40;1.00;;;;;;5081970;28;20194;-78
2022/07/19 14:32:44;;;;;;;2.00;1.73;;;37.50;1.00;;;;;;5099769;28;20174;-79
2022/07/19 14:35:09;;;;;;;2.47;1.08;;;37.60;1.00;;;;;;5100933;28;20591;-79
2022/07/19 14:37:35;;;;;;;1.45;1.33;;;37.80;1.00;;;;;;5102799;28;20203;-79
2022/07/19 14:40:01;;;;;;;2.80;1.60;;;37.90;1.00;;;;;;5101956;28;20173;-79
2022/07/19 14:42:29;;;;;;;2.13;1.38;;;37.90;1.00;;;;;;5100269;28;20166;-79
2022/07/19 14:44:58;;;;;;;2.65;1.35;;;38.10;1.00;;;;;;5102145;28;20253;-79
2022/07/19 14:47:23;;;;;;;3.50;1.45;;;38.20;1.00;;;;;;5084153;28;20186;-79
2022/07/19 14:49:49;;;;;;;2.75;1.30;;;38.20;1.00;;;;;;5101571;28;20237;-79
2022/07/19 14:52:14;;;;;;;3.83;1.60;;;38.30;1.00;;;;;;5102375;28;20177;-79
2022/07/19 14:54:40;;;;;;;1.90;1.40;;;38.30;1.00;;;;;;5106726;28;20185;-79
2022/07/19 14:57:05;;;;;;;3.75;1.60;;;38.30;1.00;;;;;;5088859;28;20277;-78
2022/07/19 14:59:31;;;;;;;2.00;1.48;;;38.30;1.00;;;;;;5083863;28;20186;-78
2022/07/19 15:01:57;;;;;;;2.38;1.30;;;38.40;1.00;;;;;;5099603;28;20185;-79
2022/07/19 15:04:22;;;;;;;2.00;1.17;;;38.30;1.00;;;;;;5083139;28;20178;-78
2022/07/19 15:06:48;;;;;;;2.28;1.40;;;38.30;1.00;;;;;;5100269;28;20170;-79
2022/07/19 15:09:14;;;;;;;1.40;1.30;;;38.40;1.00;;;;;;5081671;28;20170;-78
2022/07/19 15:11:40;;;;;;;1.88;1.60;;;38.40;1.00;;;;;;5100184;28;20205;-79
2022/07/19 15:14:06;;;;;;;1.60;1.40;;;38.50;1.00;;;;;;5100755;28;20533;-79
2022/07/19 15:16:32;;;;;;;2.35;1.33;;;38.50;1.00;;;;;;5102065;28;20172;-79
2022/07/19 15:18:58;;;;;;;2.97;1.60;;;38.50;1.00;;;;;;5102341;28;20249;-79
2022/07/19 15:21:24;;;;;;;3.40;1.40;;;38.40;1.00;;;;;;5083957;28;20194;-79
2022/07/19 15:23:49;;;;;;;2.58;1.50;;;38.50;1.00;;;;;;5102437;28;20179;-79
2022/07/19 15:26:15;;;;;;;2.30;1.30;;;38.50;1.00;;;;;;5084995;28;20265;-79
2022/07/19 15:28:41;;;;;;;2.28;1.45;;;38.40;1.00;;;;;;5102514;28;20175;-77
2022/07/19 15:31:07;;;;;;;3.75;1.52;;;38.40;1.00;;;;;;5099884;28;20185;-79
2022/07/19 15:33:33;;;;;;;1.83;1.58;;;38.50;1.00;;;;;;5086649;28;20185;-79
2022/07/19 15:35:59;;;;;;;2.10;1.48;;;38.50;1.00;;;;;;5105849;28;20174;-80
2022/07/19 15:38:25;;;;;;;2.97;1.23;;;38.50;1.00;;;;;;5103565;28;20216;-79
2022/07/19 15:40:50;;;;;;;4.90;1.65;;;38.50;1.00;;;;;;5104560;28;20190;-79
2022/07/19 15:43:17;;;;;;;1.92;1.70;;;38.60;1.00;;;;;;5103395;28;20217;-80
2022/07/19 15:45:43;;;;;;;2.35;1.50;;;38.70;1.00;;;;;;5086482;28;20234;-80
2022/07/19 15:48:09;;;;;;;4.40;1.50;;;38.70;1.00;;;;;;5104634;28;20564;-80
2022/07/19 15:50:37;;;;;;;3.35;1.50;;;38.70;1.00;;;;;;5086451;28;20257;-80
2022/07/19 15:53:07;;;;;;;4.15;1.88;;;38.70;1.00;;;;;;5103460;28;20257;-80
2022/07/19 15:55:33;;;;;;;2.35;1.42;;;38.80;1.00;;;;;;5105483;28;20190;-80
2022/07/19 15:57:59;;;;;;;4.07;2.10;;;38.90;1.00;;;;;;5086122;28;20198;-80
2022/07/19 16:00:25;;;;;;;2.53;1.27;;;38.80;1.00;;;;;;5105039;28;20196;-80
2022/07/19 16:02:51;;;;;;;6.78;1.60;;;38.80;1.00;;;;;;5105180;28;20171;-80
2022/07/19 16:05:18;;;;;;;6.45;2.00;;;38.90;1.00;;;;;;5105368;28;20225;-81
2022/07/19 16:07:44;;;;;;;3.33;1.77;;;38.90;1.00;;;;;;5104812;28;20177;-80
2022/07/19 16:10:11;;;;;;;4.50;1.63;;;38.90;1.00;;;;;;5104458;28;20201;-80
2022/07/19 16:12:36;;;;;;;2.00;1.73;;;38.80;1.00;;;;;;5103393;28;20257;-80
2022/07/19 16:15:02;;;;;;;2.33;1.50;;;38.80;1.00;;;;;;5101983;28;20685;-81
2022/07/19 16:17:31;;;;;;;1.73;1.50;;;38.80;1.00;;;;;;5102165;28;20252;-80
2022/07/19 16:19:57;;;;;;;2.25;1.50;;;38.70;1.00;;;;;;5084724;28;20204;-80
2022/07/19 16:22:22;;;;;;;2.42;1.80;;;38.70;1.00;;;;;;5102211;28;20171;-80
2022/07/19 16:24:48;;;;;;;2.30;1.60;;;38.70;1.00;;;;;;5103510;28;20176;-79
2022/07/19 16:27:13;;;;;;;3.53;1.80;;;38.70;1.00;;;;;;5085103;28;20170;-80
2022/07/19 16:29:39;;;;;;;3.25;1.65;;;38.70;1.00;;;;;;5084965;28;20268;-80
2022/07/19 16:32:05;;;;;;;4.22;2.08;;;38.60;1.00;;;;;;5085720;28;20219;-79
2022/07/19 16:34:30;;;;;;;3.22;1.70;;;38.50;1.00;;;;;;5104513;28;20174;-81
2022/07/19 16:36:56;;;;;;;2.30;1.70;;;38.40;1.00;;;;;;5106153;28;20205;-80
2022/07/19 16:39:21;;;;;;;2.40;1.80;;;38.40;1.00;;;;;;5103957;28;20224;-80
2022/07/19 16:41:47;;;;;;;2.63;1.75;;;38.40;1.00;;;;;;5100460;28;20188;-80
2022/07/19 16:44:12;;;;;;;9.82;1.98;;;38.40;1.00;;;;;;5099172;28;20632;-79
2022/07/19 16:46:39;;;;;;;3.92;2.00;;;38.40;1.00;;;;;;5080822;28;20631;-80
2022/07/19 16:49:04;;;;;;;2.22;1.55;;;38.30;1.00;;;;;;5098566;28;20217;-79
2022/07/19 16:51:30;;;;;;;3.83;1.80;;;38.30;1.00;;;;;;5098512;28;20539;-79
2022/07/19 16:53:57;;;;;;;3.22;1.70;;;38.30;1.00;;;;;;5098526;28;20189;-79
2022/07/19 16:56:23;;;;;;;3.50;1.60;;;38.30;1.00;;;;;;5098913;28;20171;-79
2022/07/19 16:58:49;;;;;;;3.75;1.83;;;38.30;1.00;;;;;;5079702;28;20742;-79
2022/07/19 17:01:14;;;;;;;2.08;1.70;;;38.30;1.00;;;;;;5099714;28;20194;-79
2022/07/19 17:03:40;;;;;;;2.08;1.88;;;38.30;1.00;;;;;;5098039;28;20170;-79
2022/07/19 17:06:06;;;;;;;2.90;1.80;;;38.30;1.00;;;;;;5096237;28;20722;-78
2022/07/19 17:08:31;;;;;;;7.78;2.15;;;38.30;1.00;;;;;;5096576;28;20180;-79
2022/07/19 17:10:58;;;;;;;2.15;1.90;;;38.30;1.00;;;;;;5096474;28;20214;-78
2022/07/19 17:13:23;;;;;;;4.10;2.05;;;38.30;1.00;;;;;;5096893;28;20189;-79
2022/07/19 17:15:49;;;;;;;2.03;1.70;;;38.20;1.00;;;;;;5096843;28;20178;-79
2022/07/19 17:18:15;;;;;;;4.43;1.90;;;38.30;1.00;;;;;;5097010;28;20224;-79
2022/07/19 17:20:40;;;;;;;8.15;1.80;;;38.20;1.00;;;;;;5096319;28;20195;-77
2022/07/19 17:23:06;;;;;;;4.68;1.90;;;38.10;1.00;;;;;;5077820;28;20182;-79
2022/07/19 17:25:31;;;;;;;1.90;1.65;;;38.10;1.00;;;;;;5096391;28;20197;-79
2022/07/19 17:27:57;;;;;;;6.00;2.00;;;38.00;1.00;;;;;;5095948;28;20171;-79
2022/07/19 17:30:23;;;;;;;4.93;2.35;;;38.00;1.00;;;;;;5099938;28;20281;-79
2022/07/19 17:32:49;;;;;;;3.92;1.88;;;37.90;1.00;;;;;;5101557;28;20186;-79
2022/07/19 17:35:15;;;;;;;1.73;1.63;;;37.80;1.00;;;;;;5082269;28;20171;-79
2022/07/19 17:37:41;;;;;;;2.38;1.70;;;37.70;1.00;;;;;;5082599;28;20588;-78
2022/07/19 17:40:07;;;;;;;6.53;1.70;;;37.70;1.00;;;;;;5101414;28;20598;-78
2022/07/19 17:42:33;;;;;;;3.05;1.40;;;37.70;1.00;;;;;;5081953;28;20174;-79
2022/07/19 17:44:59;;;;;;;4.25;1.83;;;37.60;1.00;;;;;;5083726;28;20246;-80
2022/07/19 17:47:26;;;;;;;2.92;1.90;;;37.50;1.00;;;;;;5082150;28;20194;-79
2022/07/19 17:49:53;;;;;;;2.13;1.70;;;37.40;1.00;;;;;;5101677;28;20197;-79
2022/07/19 17:52:19;;;;;;;4.25;1.60;;;37.40;1.00;;;;;;5081256;28;20185;-80
2022/07/19 17:54:44;;;;;;;4.25;1.67;;;37.40;1.00;;;;;;5082894;28;20191;-80
2022/07/19 17:57:10;;;;;;;4.55;2.00;;;37.20;1.00;;;;;;5098202;28;20206;-78